Time;durP1;ratioP1;P1;durP2;ratioP2;P2;SDS_P1;SDS_P2;PMS_P1;PMS_P2;Temp;Humidity;BMP_temperature;BMP_pressure;BME280_temperature;BME280_humidity;BME280_pressure;Samples;Min_cycle;Max_cycle;Signal;HPM_P1;HPM_P2
2023/04/06 06:56:16;;;;;;;16.30;9.40;;;3.70;99.90;;;;;;3329695;26;20050;-85
2023/04/06 06:58:41;;;;;;;14.90;9.98;;;3.80;99.90;;;;;;4966978;28;20058;-84
2023/04/06 07:01:07;;;;;;;13.48;8.88;;;4.00;99.90;;;;;;4988366;28;20066;-84
2023/04/06 07:03:32;;;;;;;15.57;9.13;;;4.10;99.90;;;;;;4985661;28;21238;-83
2023/04/06 07:05:58;;;;;;;14.80;9.90;;;4.20;99.90;;;;;;4986842;28;20381;-85
2023/04/06 07:08:24;;;;;;;17.88;9.85;;;4.40;99.90;;;;;;4986929;28;20122;-84
2023/04/06 07:10:56;;;;;;;16.58;10.13;;;4.60;99.90;;;;;;4986639;28;20136;-85
2023/04/06 07:13:22;;;;;;;;;;;4.70;99.90;;;;;;4984856;28;20038;-85
2023/04/06 07:15:49;;;;;;;15.02;9.80;;;4.80;99.90;;;;;;4986527;28;19968;-82
2023/04/06 07:18:15;;;;;;;17.30;9.40;;;5.00;99.90;;;;;;4986716;28;20089;-82
2023/04/06 07:20:41;;;;;;;15.63;10.15;;;5.10;99.90;;;;;;4990435;28;20042;-86
2023/04/06 07:23:07;;;;;;;16.38;10.65;;;5.30;99.90;;;;;;4987921;28;20096;-85
2023/04/06 07:25:32;;;;;;;17.15;10.70;;;5.40;99.90;;;;;;4970232;28;20072;-85
2023/04/06 07:27:58;;;;;;;16.77;10.50;;;5.50;99.90;;;;;;4986368;28;20121;-85
2023/04/06 07:30:26;;;;;;;16.25;9.77;;;5.60;99.90;;;;;;4983686;28;20134;-85
2023/04/06 07:32:51;;;;;;;15.80;14.27;;;5.80;99.90;;;;;;4986678;28;20055;-83
2023/04/06 07:35:17;;;;;;;16.67;14.55;;;5.90;99.90;;;;;;4980688;28;20027;-79
2023/04/06 07:37:43;;;;;;;15.18;10.40;;;6.10;99.90;;;;;;4985539;28;20038;-81
2023/04/06 07:40:09;;;;;;;16.20;10.45;;;6.20;99.90;;;;;;4988303;28;20406;-85
2023/04/06 07:42:34;;;;;;;15.13;9.65;;;6.30;99.90;;;;;;4987046;28;20070;-87
2023/04/06 07:45:00;;;;;;;16.48;14.73;;;6.50;99.90;;;;;;4982527;28;20058;-79
2023/04/06 07:47:26;;;;;;;16.63;14.30;;;6.60;99.90;;;;;;4969198;28;20442;-81
2023/04/06 07:49:51;;;;;;;17.15;10.73;;;6.80;99.90;;;;;;4989215;28;20463;-82
2023/04/06 07:52:17;;;;;;;14.98;9.55;;;6.90;99.90;;;;;;4995116;28;20034;-83
2023/04/06 07:54:43;;;;;;;15.05;13.38;;;7.00;99.90;;;;;;4988705;28;20050;-80
2023/04/06 07:57:08;;;;;;;16.13;14.43;;;7.10;99.90;;;;;;4988980;28;20058;-81
2023/04/06 07:59:34;;;;;;;16.35;14.57;;;7.20;99.90;;;;;;4981996;28;20034;-82
2023/04/06 08:02:00;;;;;;;16.25;14.50;;;7.30;99.90;;;;;;4985687;28;20121;-81
2023/04/06 08:04:26;;;;;;;17.00;14.50;;;7.40;99.90;;;;;;4985828;28;20394;-84
2023/04/06 08:06:51;;;;;;;15.77;10.50;;;7.50;99.90;;;;;;4987796;28;20046;-83
2023/04/06 08:09:17;;;;;;;15.85;14.15;;;7.60;99.90;;;;;;4971671;28;20104;-80
2023/04/06 08:11:44;;;;;;;15.73;11.02;;;7.80;99.90;;;;;;4968551;28;20046;-80
2023/04/06 08:14:10;;;;;;;17.83;15.07;;;7.90;99.90;;;;;;4984951;28;20042;-81
2023/04/06 08:16:35;;;;;;;17.30;15.13;;;8.00;99.90;;;;;;4985693;28;20124;-82
2023/04/06 08:19:01;;;;;;;18.40;15.75;;;8.20;99.90;;;;;;4987260;28;20029;-82
2023/04/06 08:21:26;;;;;;;16.52;14.82;;;8.30;99.90;;;;;;4992041;28;20038;-82
2023/04/06 08:23:52;;;;;;;16.88;15.07;;;8.50;99.90;;;;;;4983104;28;20483;-82
2023/04/06 08:26:18;;;;;;;16.30;14.70;;;8.60;99.90;;;;;;4986166;28;20046;-81
2023/04/06 08:28:43;;;;;;;16.15;14.45;;;8.70;99.90;;;;;;4988563;28;20108;-81
2023/04/06 08:31:09;;;;;;;16.60;14.35;;;8.90;99.90;;;;;;4985417;28;20392;-81
2023/04/06 08:33:36;;;;;;;17.15;14.40;;;9.00;99.90;;;;;;4986702;28;20129;-82
2023/04/06 08:36:09;;;;;;;17.45;14.40;;;9.20;99.90;;;;;;4985792;28;20050;-82
2023/04/06 08:38:35;;;;;;;16.35;14.65;;;9.30;99.90;;;;;;4990696;28;20046;-82
2023/04/06 08:41:10;;;;;;;17.75;14.65;;;9.40;99.90;;;;;;4984646;28;20043;-83
2023/04/06 08:43:43;;;;;;;18.15;14.98;;;9.50;99.90;;;;;;4984828;28;20119;-82
2023/04/06 08:46:10;;;;;;;17.98;13.88;;;9.60;99.90;;;;;;4995193;28;20529;-82
2023/04/06 08:48:36;;;;;;;18.77;14.68;;;9.70;99.90;;;;;;4990823;28;20157;-81
2023/04/06 08:51:03;;;;;;;15.70;14.00;;;9.80;99.90;;;;;;4990721;28;20125;-82
2023/04/06 08:53:29;;;;;;;16.60;14.32;;;9.90;99.90;;;;;;4973626;28;20046;-83
2023/04/06 08:55:58;;;;;;;16.40;14.25;;;10.10;99.90;;;;;;4997911;28;20050;-82
2023/04/06 08:58:25;;;;;;;17.08;15.25;;;10.30;99.90;;;;;;5012347;28;20034;-83
2023/04/06 09:00:52;;;;;;;17.65;14.82;;;10.60;99.90;;;;;;5007547;28;20049;-84
2023/04/06 09:03:18;;;;;;;18.35;14.77;;;10.70;99.90;;;;;;5005867;28;20038;-83
2023/04/06 09:05:46;;;;;;;16.75;15.00;;;10.80;99.90;;;;;;4989560;28;20413;-84
2023/04/06 09:08:12;;;;;;;16.80;14.93;;;10.80;99.90;;;;;;5007755;28;20046;-84
2023/04/06 09:10:41;;;;;;;16.52;14.73;;;10.60;99.90;;;;;;4987808;28;20483;-83
2023/04/06 09:13:07;;;;;;;18.30;15.57;;;10.60;99.90;;;;;;4992741;28;20103;-83
2023/04/06 09:15:33;;;;;;;18.10;16.20;;;10.60;99.90;;;;;;5007603;28;20049;-85
2023/04/06 09:17:58;;;;;;;17.88;15.73;;;10.60;99.90;;;;;;4993295;28;20540;-86
2023/04/06 09:20:26;;;;;;;18.00;15.95;;;10.60;99.90;;;;;;5008178;28;20056;-85
2023/04/06 09:22:52;;;;;;;17.45;15.65;;;10.60;99.90;;;;;;5007824;28;20041;-83
2023/04/06 09:25:22;;;;;;;18.15;16.25;;;10.60;99.90;;;;;;4990864;28;20065;-84
2023/04/06 09:27:57;;;;;;;18.85;16.95;;;10.80;99.90;;;;;;5005676;28;20045;-85
2023/04/06 09:30:24;;;;;;;18.08;16.25;;;10.80;99.90;;;;;;5005988;28;20069;-84
2023/04/06 09:32:52;;;;;;;19.15;16.95;;;10.80;99.90;;;;;;5006139;28;20382;-84
2023/04/06 09:35:19;;;;;;;18.77;16.73;;;10.90;99.90;;;;;;5003673;28;20049;-84
2023/04/06 09:37:47;;;;;;;19.63;17.52;;;10.90;99.90;;;;;;5010240;28;20041;-82
2023/04/06 09:40:13;;;;;;;19.35;17.33;;;10.90;99.90;;;;;;5012990;28;20510;-83
2023/04/06 09:42:45;;;;;;;19.15;17.15;;;10.90;99.90;;;;;;5015601;28;20037;-83
2023/04/06 09:45:10;;;;;;;;;;;10.90;99.90;;;;;;5010153;28;20043;-83
2023/04/06 09:47:37;;;;;;;18.90;16.90;;;10.90;99.90;;;;;;5011026;28;20020;-84
2023/04/06 09:50:03;;;;;;;19.27;16.60;;;11.00;99.90;;;;;;5011262;28;20113;-84
2023/04/06 09:52:37;;;;;;;20.00;17.63;;;11.10;99.90;;;;;;5008481;28;20084;-83
2023/04/06 09:55:04;;;;;;;19.85;17.75;;;11.10;99.90;;;;;;5008029;28;20068;-83
2023/04/06 09:57:45;;;;;;;19.77;17.23;;;11.20;99.90;;;;;;4973535;28;20041;-83
2023/04/06 10:00:18;;;;;;;20.58;18.30;;;11.20;99.90;;;;;;4991466;28;20034;-84
2023/04/06 10:02:53;;;;;;;22.40;18.35;;;11.20;99.90;;;;;;4988765;28;20046;-84
2023/04/06 10:05:37;;;;;;;22.58;18.50;;;11.30;99.90;;;;;;4990526;28;20157;-84
2023/04/06 10:08:08;;;;;;;20.95;18.00;;;11.30;99.90;;;;;;4973564;28;20153;-84
2023/04/06 10:10:34;;;;;;;20.85;18.65;;;11.30;99.90;;;;;;4985081;28;20085;-85
2023/04/06 10:13:01;;;;;;;21.20;19.00;;;11.30;99.90;;;;;;4997025;28;20045;-83
2023/04/06 10:15:29;;;;;;;20.75;18.08;;;11.40;99.90;;;;;;4972744;28;20483;-86
2023/04/06 10:17:56;;;;;;;21.80;18.33;;;11.50;99.90;;;;;;4971132;28;20113;-86
2023/04/06 10:20:43;;;;;;;21.63;19.30;;;11.60;99.90;;;;;;4992759;28;20430;-85
2023/04/06 10:23:31;;;;;;;23.55;19.73;;;11.80;99.90;;;;;;4988405;28;20093;-87
2023/04/06 10:25:59;;;;;;;21.63;18.83;;;12.00;99.90;;;;;;4992611;28;20042;-86
2023/04/06 10:28:25;;;;;;;21.48;19.17;;;12.10;99.90;;;;;;4987633;28;20042;-85
2023/04/06 10:30:58;;;;;;;23.00;20.50;;;12.10;99.90;;;;;;4979135;28;20459;-90
2023/04/06 10:33:23;;;;;;;23.17;20.45;;;12.30;99.90;;;;;;4989670;28;20042;-87
2023/04/06 10:35:49;;;;;;;22.83;20.42;;;12.40;99.90;;;;;;4987926;28;20447;-83
2023/04/06 10:38:19;;;;;;;22.80;20.25;;;12.60;99.90;;;;;;4987600;28;20034;-83
2023/04/06 10:40:47;;;;;;;24.25;21.75;;;12.80;99.90;;;;;;4986048;28;20493;-83
2023/04/06 10:43:22;;;;;;;24.33;21.67;;;12.80;99.90;;;;;;4988553;28;20073;-83
2023/04/06 10:46:00;;;;;;;23.77;21.27;;;13.00;99.90;;;;;;4984845;28;20053;-82
2023/04/06 10:48:46;;;;;;;25.13;22.00;;;13.10;99.90;;;;;;4987289;28;20030;-83
2023/04/06 10:51:16;;;;;;;24.15;21.33;;;13.10;99.90;;;;;;4987821;28;20101;-83
2023/04/06 10:53:47;;;;;;;24.70;22.10;;;13.00;99.90;;;;;;4987722;28;20034;-85
2023/04/06 10:56:15;;;;;;;26.90;24.00;;;12.90;99.90;;;;;;4985856;28;20345;-86
2023/04/06 10:58:48;;;;;;;28.80;25.73;;;12.80;99.90;;;;;;4990092;28;20042;-86
2023/04/06 11:01:16;;;;;;;30.73;27.08;;;12.70;99.90;;;;;;4984758;28;20074;-83
2023/04/06 11:03:46;;;;;;;29.45;26.42;;;12.70;99.90;;;;;;4973791;28;20050;-85
2023/04/06 11:06:20;;;;;;;30.70;27.50;;;12.70;99.90;;;;;;4985938;28;20170;-86
2023/04/06 11:08:46;;;;;;;28.70;25.77;;;12.70;99.90;;;;;;4977617;28;20053;-84
2023/04/06 11:11:20;;;;;;;29.15;26.20;;;12.80;99.90;;;;;;4971265;28;20054;-81
2023/04/06 11:13:54;;;;;;;29.17;26.35;;;12.80;99.40;;;;;;4986488;28;20045;-87
2023/04/06 11:16:22;;;;;;;30.50;26.27;;;12.80;99.50;;;;;;4967011;28;20054;-84
2023/04/06 11:18:56;;;;;;;28.92;25.95;;;12.70;99.40;;;;;;4988680;28;20041;-87
2023/04/06 11:21:48;;;;;;;29.45;26.45;;;12.70;99.20;;;;;;4990556;28;20046;-87
2023/04/06 11:24:20;;;;;;;;;;;12.70;99.20;;;;;;4990149;28;20045;-91
2023/04/06 11:26:51;;;;;;;29.58;26.48;;;12.70;99.60;;;;;;4988120;28;20012;-86
2023/04/06 11:29:21;;;;;;;29.90;26.58;;;12.70;99.30;;;;;;4987696;28;20057;-85
2023/04/06 11:31:57;;;;;;;29.58;26.48;;;12.70;98.80;;;;;;4972351;28;20084;-86
2023/04/06 11:34:25;;;;;;;28.80;25.90;;;12.70;98.50;;;;;;4979145;28;20124;-86
2023/04/06 11:36:59;;;;;;;29.10;26.17;;;12.70;98.10;;;;;;4993777;28;20117;-86
2023/04/06 11:39:26;;;;;;;28.50;25.50;;;12.80;98.20;;;;;;4976599;28;20054;-87
2023/04/06 11:41:54;;;;;;;28.08;25.27;;;12.80;98.60;;;;;;4991464;28;20107;-86
2023/04/06 11:44:32;;;;;;;28.42;25.50;;;12.90;98.40;;;;;;4994304;28;20080;-86
2023/04/06 11:46:58;;;;;;;27.63;24.80;;;13.00;98.10;;;;;;4992847;28;21225;-86
2023/04/06 11:49:32;;;;;;;28.67;25.55;;;13.00;98.60;;;;;;4993484;28;20109;-88
2023/04/06 11:51:59;;;;;;;27.02;24.30;;;13.10;98.20;;;;;;4975602;28;20046;-85
2023/04/06 11:54:37;;;;;;;29.92;26.20;;;13.20;98.10;;;;;;4994308;28;20034;-86
2023/04/06 11:57:07;;;;;;;28.75;25.67;;;13.20;98.00;;;;;;4987112;28;20075;-87
2023/04/06 11:59:34;;;;;;;28.00;25.13;;;13.40;98.10;;;;;;4985500;28;20491;-86
2023/04/06 12:02:00;;;;;;;27.55;24.67;;;13.50;97.90;;;;;;4987550;28;20053;-86
2023/04/06 12:04:26;;;;;;;27.92;25.13;;;13.50;97.10;;;;;;4990286;28;20038;-87
2023/04/06 12:06:52;;;;;;;28.95;25.88;;;13.50;96.80;;;;;;4987215;28;20050;-86
2023/04/06 12:09:17;;;;;;;27.48;24.55;;;13.50;96.60;;;;;;4993565;28;20038;-86
2023/04/06 12:11:43;;;;;;;27.75;24.95;;;13.50;96.30;;;;;;4992714;28;20053;-86
2023/04/06 12:14:09;;;;;;;27.63;24.83;;;13.60;96.20;;;;;;4993572;28;20041;-86
2023/04/06 12:16:35;;;;;;;28.42;25.45;;;13.60;95.50;;;;;;4988847;28;20050;-86
2023/04/06 12:19:01;;;;;;;27.55;23.88;;;13.50;95.40;;;;;;4981931;28;20029;-86
2023/04/06 12:21:28;;;;;;;26.77;23.80;;;13.70;96.00;;;;;;4970622;28;20046;-86
2023/04/06 12:23:54;;;;;;;36.28;32.65;;;13.80;95.90;;;;;;4965079;28;20451;-86
2023/04/06 12:26:20;;;;;;;27.02;24.23;;;13.90;95.30;;;;;;4986349;28;20069;-86
2023/04/06 12:28:46;;;;;;;26.92;24.15;;;13.90;94.90;;;;;;4986457;28;20458;-86
2023/04/06 12:31:19;;;;;;;27.13;24.10;;;14.00;95.10;;;;;;4977753;28;20381;-86
2023/04/06 12:33:51;;;;;;;27.30;24.58;;;14.20;95.10;;;;;;4984000;28;20117;-86
2023/04/06 12:36:20;;;;;;;26.40;23.70;;;14.20;94.90;;;;;;4984550;28;20046;-86
2023/04/06 12:38:53;;;;;;;26.08;23.40;;;14.20;94.30;;;;;;4983990;28;20101;-87
2023/04/06 12:41:19;;;;;;;27.77;24.77;;;14.20;94.10;;;;;;4986514;28;20487;-88
2023/04/06 12:43:46;;;;;;;27.58;24.67;;;14.20;94.50;;;;;;4986104;28;20045;-87
2023/04/06 12:46:11;;;;;;;27.50;24.60;;;14.20;94.70;;;;;;4981492;28;20376;-88
2023/04/06 12:48:37;;;;;;;26.92;24.13;;;14.10;94.30;;;;;;4979557;28;20383;-86
2023/04/06 12:51:05;;;;;;;26.65;23.85;;;14.10;93.70;;;;;;4981767;28;20038;-94
2023/04/06 12:53:31;;;;;;;26.27;23.35;;;14.00;94.20;;;;;;4973744;28;20085;-86
2023/04/06 12:55:58;;;;;;;26.20;23.50;;;13.80;94.20;;;;;;4983561;28;20062;-88
2023/04/06 12:58:26;;;;;;;26.38;23.65;;;13.70;94.50;;;;;;4995621;28;20074;-87
2023/04/06 13:00:52;;;;;;;26.98;24.17;;;13.60;94.60;;;;;;4997254;28;20042;-87
2023/04/06 13:03:19;;;;;;;26.20;23.40;;;13.60;94.60;;;;;;5007733;28;20030;-88
2023/04/06 13:05:50;;;;;;;25.58;22.88;;;13.60;94.80;;;;;;5000393;28;20042;-86
2023/04/06 13:08:17;;;;;;;25.27;22.63;;;13.60;94.70;;;;;;5006839;28;20958;-85
2023/04/06 13:10:47;;;;;;;27.00;24.20;;;13.60;95.00;;;;;;5013472;28;20052;-83
2023/04/06 13:13:14;;;;;;;26.13;23.42;;;13.70;95.00;;;;;;5007845;28;20088;-84
2023/04/06 13:15:40;;;;;;;24.83;22.33;;;13.70;95.30;;;;;;5010276;28;20060;-87
2023/04/06 13:18:05;;;;;;;25.55;22.85;;;13.80;95.30;;;;;;5004419;28;20055;-87
2023/04/06 13:20:31;;;;;;;25.73;22.92;;;13.70;95.80;;;;;;5005613;28;20042;-85
2023/04/06 13:22:57;;;;;;;25.00;22.40;;;13.70;96.00;;;;;;5007572;28;20034;-87
2023/04/06 13:25:22;;;;;;;25.00;22.30;;;13.80;96.00;;;;;;5005554;28;20049;-85
2023/04/06 13:27:48;;;;;;;26.73;23.13;;;13.80;96.00;;;;;;5008360;28;20041;-85
2023/04/06 13:30:14;;;;;;;25.23;22.52;;;13.70;96.20;;;;;;5007998;28;20034;-84
2023/04/06 13:32:40;;;;;;;24.60;22.10;;;13.60;96.20;;;;;;5009627;28;20046;-85
2023/04/06 13:35:07;;;;;;;24.13;21.73;;;13.40;96.50;;;;;;5012358;28;20520;-85
2023/04/06 13:37:33;;;;;;;24.17;21.67;;;13.30;96.60;;;;;;5005639;28;20038;-87
2023/04/06 13:39:58;;;;;;;24.42;21.83;;;13.30;96.40;;;;;;5013523;28;20037;-88
2023/04/06 13:42:24;;;;;;;26.77;22.52;;;13.20;96.70;;;;;;5014029;28;20053;-85
2023/04/06 13:44:50;;;;;;;23.85;21.35;;;13.20;96.80;;;;;;5009594;28;20099;-85
2023/04/06 13:47:16;;;;;;;22.42;20.02;;;13.00;97.40;;;;;;5007924;28;20057;-87
2023/04/06 13:49:42;;;;;;;21.02;18.77;;;13.00;97.40;;;;;;5009055;28;20082;-86
2023/04/06 13:52:09;;;;;;;20.80;18.38;;;13.00;98.20;;;;;;5005804;28;20398;-88
2023/04/06 13:54:35;;;;;;;19.58;17.48;;;12.90;98.10;;;;;;5006106;28;20545;-87
2023/04/06 13:57:01;;;;;;;19.73;16.63;;;12.90;98.80;;;;;;4993225;28;20137;-89
2023/04/06 13:59:33;;;;;;;19.95;17.13;;;12.90;99.20;;;;;;4973551;28;20053;-89
2023/04/06 14:01:59;;;;;;;19.75;15.93;;;12.90;99.90;;;;;;4980925;28;20132;-90
2023/04/06 14:04:24;;;;;;;17.85;15.77;;;12.80;99.80;;;;;;4989427;28;20121;-88
2023/04/06 14:06:50;;;;;;;18.65;15.57;;;12.70;99.90;;;;;;5004911;28;20073;-87
2023/04/06 14:09:15;;;;;;;19.42;16.45;;;12.60;99.90;;;;;;4987272;28;20038;-88
2023/04/06 14:11:41;;;;;;;18.58;16.58;;;12.40;99.90;;;;;;4965479;28;20502;-86
2023/04/06 14:14:07;;;;;;;21.70;18.85;;;12.30;99.90;;;;;;4969123;28;20042;-89
2023/04/06 14:16:32;;;;;;;22.42;19.75;;;12.40;99.90;;;;;;4967717;28;20050;-87
2023/04/06 14:18:58;;;;;;;23.38;19.27;;;12.20;99.90;;;;;;5007251;28;20035;-87
2023/04/06 14:21:24;;;;;;;20.10;17.83;;;12.20;99.90;;;;;;4989461;28;20042;-83
2023/04/06 14:23:50;;;;;;;22.67;19.40;;;12.20;99.90;;;;;;5005525;28;20046;-86
2023/04/06 14:26:16;;;;;;;19.85;17.75;;;12.20;99.90;;;;;;4991147;28;20039;-85
2023/04/06 14:28:42;;;;;;;21.42;18.52;;;12.20;99.90;;;;;;4998106;28;20038;-84
2023/04/06 14:31:15;;;;;;;20.38;18.23;;;12.20;99.90;;;;;;4985293;28;20034;-86
2023/04/06 14:33:42;;;;;;;20.70;18.48;;;12.20;99.90;;;;;;4986664;28;20542;-85
2023/04/06 14:36:08;;;;;;;19.08;16.65;;;12.20;99.90;;;;;;4991953;28;20039;-87
2023/04/06 14:38:34;;;;;;;19.17;17.08;;;12.20;99.90;;;;;;4970519;28;20445;-86
2023/04/06 14:41:00;;;;;;;19.52;17.50;;;12.20;99.90;;;;;;4986653;28;20062;-86
2023/04/06 14:43:26;;;;;;;20.42;18.23;;;12.30;99.90;;;;;;4988379;28;20057;-85
2023/04/06 14:45:52;;;;;;;23.90;19.27;;;12.40;99.90;;;;;;5006372;28;20058;-85
2023/04/06 14:48:18;;;;;;;19.80;17.70;;;12.40;99.90;;;;;;4990733;28;20046;-85
2023/04/06 14:50:55;;;;;;;17.02;15.13;;;12.50;99.90;;;;;;4982618;28;20046;-82
2023/04/06 14:53:22;;;;;;;17.30;14.55;;;12.40;99.90;;;;;;4972662;28;20510;-86
2023/04/06 14:55:51;;;;;;;17.27;15.10;;;12.30;99.90;;;;;;4986039;28;20057;-83
2023/04/06 14:58:17;;;;;;;17.75;15.27;;;12.10;99.90;;;;;;4982234;28;20480;-87
2023/04/06 15:00:43;;;;;;;18.10;15.32;;;11.90;99.90;;;;;;4986451;28;20050;-85
2023/04/06 15:03:08;;;;;;;19.77;17.02;;;11.80;99.90;;;;;;4970764;28;20096;-85
2023/04/06 15:05:34;;;;;;;20.27;17.30;;;11.70;99.90;;;;;;4983766;28;20488;-83
2023/04/06 15:08:00;;;;;;;18.10;16.20;;;11.60;99.90;;;;;;4988641;28;20034;-87
2023/04/06 15:10:27;;;;;;;19.83;16.27;;;11.60;99.90;;;;;;4987772;28;20081;-85
2023/04/06 15:12:53;;;;;;;17.77;15.18;;;11.50;99.90;;;;;;4974151;28;20058;-83
2023/04/06 15:15:19;;;;;;;19.90;15.63;;;11.40;99.90;;;;;;4968309;28;20113;-84
2023/04/06 15:17:45;;;;;;;18.08;15.90;;;11.30;99.90;;;;;;4979991;28;20046;-86
2023/04/06 15:20:11;;;;;;;17.52;15.38;;;11.10;99.90;;;;;;4997860;28;20037;-88
2023/04/06 15:22:36;;;;;;;19.52;16.65;;;10.90;99.90;;;;;;4968114;28;20057;-85
2023/04/06 15:25:02;;;;;;;18.50;16.50;;;10.80;99.90;;;;;;4975305;28;20495;-86
2023/04/06 15:27:28;;;;;;;18.63;16.67;;;10.70;99.90;;;;;;4970435;28;20468;-88
2023/04/06 15:29:54;;;;;;;19.38;17.27;;;10.60;99.90;;;;;;4981504;28;20046;-85
2023/04/06 15:32:19;;;;;;;21.02;18.77;;;10.50;99.90;;;;;;4972598;28;20491;-86
2023/04/06 15:34:45;;;;;;;21.35;19.08;;;10.40;99.90;;;;;;4975253;28;20042;-85
2023/04/06 15:37:10;;;;;;;21.33;18.48;;;10.30;99.90;;;;;;4989886;28;20045;-89
2023/04/06 15:39:36;;;;;;;21.55;19.13;;;10.20;99.90;;;;;;4988563;28;20049;-89
2023/04/06 15:42:02;;;;;;;22.52;20.23;;;10.20;99.90;;;;;;4970786;28;20050;-89
2023/04/06 15:44:28;;;;;;;22.60;19.83;;;10.20;99.90;;;;;;4964367;28;20042;-89
2023/04/06 15:46:54;;;;;;;22.88;20.38;;;10.20;99.90;;;;;;4971204;28;20045;-92
2023/04/06 15:49:20;;;;;;;22.73;20.20;;;10.20;99.90;;;;;;4986436;28;20034;-87
2023/04/06 15:51:50;;;;;;;24.13;20.52;;;10.20;99.90;;;;;;4965833;28;20053;-87
2023/04/06 15:54:17;;;;;;;23.48;21.00;;;10.10;99.90;;;;;;4964891;28;20169;-89
2023/04/06 15:56:42;;;;;;;23.52;20.98;;;10.10;99.90;;;;;;4985155;28;20571;-87
2023/04/06 15:59:08;;;;;;;25.08;22.48;;;10.00;99.90;;;;;;4967244;28;20113;-92
2023/04/06 16:01:34;;;;;;;25.58;22.77;;;10.00;99.90;;;;;;4966477;28;20497;-92
2023/04/06 16:04:00;;;;;;;24.65;22.10;;;9.90;99.90;;;;;;4972691;28;20121;-92
2023/04/06 16:06:26;;;;;;;26.27;23.58;;;9.90;99.90;;;;;;4972005;28;20135;-92
2023/04/06 16:08:52;;;;;;;26.00;23.33;;;9.80;99.90;;;;;;4972528;28;20403;-88
2023/04/06 16:11:17;;;;;;;25.63;23.02;;;9.80;99.90;;;;;;4990831;28;20037;-91
2023/04/06 16:13:43;;;;;;;26.02;23.27;;;9.70;99.90;;;;;;4990151;28;20049;-85
2023/04/06 16:16:09;;;;;;;28.05;25.20;;;9.60;99.90;;;;;;4984951;28;20446;-94
2023/04/06 16:18:35;;;;;;;27.17;24.30;;;9.40;99.90;;;;;;4975265;28;20042;-90
2023/04/06 16:21:00;;;;;;;26.85;24.08;;;9.30;99.90;;;;;;4970812;28;20089;-88
2023/04/06 16:23:26;;;;;;;26.02;23.33;;;9.30;99.90;;;;;;4970937;28;20184;-91
2023/04/06 16:25:56;;;;;;;24.00;21.50;;;9.20;99.90;;;;;;4983196;28;20541;-90
2023/04/06 16:28:23;;;;;;;19.75;17.63;;;9.10;99.90;;;;;;4989719;28;20042;-90
2023/04/06 16:30:50;;;;;;;18.92;16.63;;;9.10;99.90;;;;;;4969539;28;20386;-88
2023/04/06 16:33:18;;;;;;;18.33;16.08;;;9.10;99.90;;;;;;4985493;28;20042;-88
2023/04/06 16:35:47;;;;;;;18.80;16.23;;;9.00;99.90;;;;;;4975898;28;20088;-88
2023/04/06 16:38:14;;;;;;;17.23;15.30;;;9.00;99.90;;;;;;4959369;28;20045;-88
2023/04/06 16:40:40;;;;;;;17.60;14.65;;;8.90;99.90;;;;;;5008692;28;20049;-87
2023/04/06 16:43:05;;;;;;;17.33;15.25;;;8.80;99.90;;;;;;4988081;28;20047;-88
2023/04/06 16:45:31;;;;;;;19.00;15.48;;;8.80;99.90;;;;;;4970931;28;20057;-88
2023/04/06 16:47:57;;;;;;;17.02;14.77;;;8.80;99.90;;;;;;4989261;28;20053;-88
2023/04/06 16:50:22;;;;;;;18.02;15.45;;;8.80;99.90;;;;;;4973464;28;20049;-88
2023/04/06 16:52:48;;;;;;;16.70;14.50;;;8.70;99.90;;;;;;4990858;28;20054;-88
2023/04/06 16:55:13;;;;;;;16.40;14.65;;;8.70;99.90;;;;;;4994904;28;20073;-88
2023/04/06 16:57:39;;;;;;;17.63;15.18;;;8.70;99.90;;;;;;4987891;28;20046;-88
2023/04/06 17:00:07;;;;;;;16.17;14.48;;;8.70;99.90;;;;;;4987424;28;20038;-88
2023/04/06 17:02:34;;;;;;;19.27;15.70;;;8.60;99.90;;;;;;4956057;28;20125;-88
2023/04/06 17:05:01;;;;;;;16.60;14.73;;;8.60;99.90;;;;;;4988345;28;20035;-88
2023/04/06 17:07:31;;;;;;;16.52;13.88;;;8.60;99.90;;;;;;4974309;28;20046;-88
2023/04/06 17:09:58;;;;;;;16.08;13.93;;;8.60;99.90;;;;;;4975886;28;20039;-88
2023/04/06 17:12:24;;;;;;;16.42;14.27;;;8.50;99.90;;;;;;4989009;28;20105;-88
2023/04/06 17:14:50;;;;;;;16.08;14.15;;;8.50;99.90;;;;;;4988513;28;20078;-88
2023/04/06 17:17:16;;;;;;;16.60;14.63;;;8.50;99.90;;;;;;4972666;28;20053;-90
2023/04/06 17:19:41;;;;;;;15.80;13.80;;;8.50;99.90;;;;;;4989839;28;20053;-89
2023/04/06 17:22:07;;;;;;;15.75;14.05;;;8.40;99.90;;;;;;4986138;28;20038;-88
2023/04/06 17:24:33;;;;;;;15.85;13.80;;;8.40;99.90;;;;;;4973889;28;20165;-88
2023/04/06 17:26:58;;;;;;;15.93;13.90;;;8.40;99.90;;;;;;4986345;28;20510;-88
2023/04/06 17:29:24;;;;;;;16.55;13.75;;;8.40;99.90;;;;;;4973149;28;20058;-88
2023/04/06 17:31:50;;;;;;;16.17;13.60;;;8.40;99.90;;;;;;4973931;28;20050;-88
2023/04/06 17:34:15;;;;;;;16.67;14.25;;;8.30;99.90;;;;;;4990556;28;20062;-88
2023/04/06 17:36:41;;;;;;;15.65;13.95;;;8.30;99.90;;;;;;4986629;28;20496;-87
2023/04/06 17:39:07;;;;;;;16.33;13.85;;;8.30;99.90;;;;;;4991448;28;20031;-88
2023/04/06 17:41:33;;;;;;;16.42;14.25;;;8.30;99.90;;;;;;4973675;28;20078;-88
2023/04/06 17:43:59;;;;;;;15.60;13.88;;;8.30;99.90;;;;;;4989971;28;20026;-88
2023/04/06 17:46:26;;;;;;;16.77;14.30;;;8.20;99.90;;;;;;4989503;28;20110;-87
2023/04/06 17:48:52;;;;;;;16.35;14.55;;;8.20;99.90;;;;;;4977250;28;20046;-88
2023/04/06 17:51:19;;;;;;;16.75;14.95;;;8.20;99.90;;;;;;4976640;28;20437;-88
2023/04/06 17:53:45;;;;;;;17.02;15.10;;;8.20;99.90;;;;;;4990510;28;20053;-87
2023/04/06 17:56:10;;;;;;;17.95;16.00;;;8.20;99.90;;;;;;4985217;28;20069;-87
2023/04/06 17:58:36;;;;;;;19.27;16.98;;;8.20;99.90;;;;;;5021424;28;20045;-88
2023/04/06 18:01:13;;;;;;;19.13;16.23;;;8.20;99.90;;;;;;5008646;28;20050;-88
2023/04/06 18:03:39;;;;;;;20.20;16.83;;;8.10;99.90;;;;;;5008043;28;20046;-87
2023/04/06 18:06:12;;;;;;;20.83;17.08;;;8.10;99.90;;;;;;5005073;28;20069;-88
2023/04/06 18:08:38;;;;;;;19.60;17.08;;;8.10;99.90;;;;;;5007982;28;20099;-87
2023/04/06 18:11:04;;;;;;;20.48;17.92;;;8.10;99.90;;;;;;5009487;28;20152;-87
2023/04/06 18:13:30;;;;;;;19.60;16.88;;;8.10;99.90;;;;;;5007356;28;20042;-88
2023/04/06 18:15:55;;;;;;;19.55;17.40;;;8.10;99.90;;;;;;5007898;28;20034;-88
2023/04/06 18:18:21;;;;;;;20.17;18.02;;;8.10;99.90;;;;;;5007752;28;20033;-88
2023/04/06 18:20:47;;;;;;;20.15;18.05;;;8.10;99.90;;;;;;5009196;28;20393;-88
2023/04/06 18:23:12;;;;;;;21.23;18.98;;;8.10;99.90;;;;;;5009542;28;20038;-87
2023/04/06 18:25:39;;;;;;;20.40;18.20;;;8.10;99.90;;;;;;5008330;28;20048;-87
2023/04/06 18:28:06;;;;;;;22.17;19.15;;;8.00;99.90;;;;;;5008273;28;20140;-87
2023/04/06 18:30:32;;;;;;;21.77;18.90;;;8.00;99.90;;;;;;5008777;28;20104;-88
2023/04/06 18:32:57;;;;;;;22.77;20.38;;;8.00;99.90;;;;;;4992228;28;20081;-88
2023/04/06 18:35:23;;;;;;;22.92;20.42;;;8.00;99.90;;;;;;5007722;28;20049;-87
2023/04/06 18:37:48;;;;;;;23.70;21.20;;;8.00;99.90;;;;;;5009278;28;20046;-88
2023/04/06 18:40:31;;;;;;;23.98;21.40;;;8.00;99.90;;;;;;5008452;28;20069;-88
2023/04/06 18:42:57;;;;;;;24.77;22.17;;;8.00;99.90;;;;;;5007446;28;20042;-88
2023/04/06 18:45:23;;;;;;;26.63;23.83;;;8.00;99.90;;;;;;5007911;28;20379;-87
2023/04/06 18:47:48;;;;;;;26.10;23.30;;;8.00;99.90;;;;;;5007961;28;20447;-88
2023/04/06 18:50:14;;;;;;;27.23;24.42;;;8.00;99.90;;;;;;5007887;28;20034;-91
2023/04/06 18:52:40;;;;;;;28.15;24.35;;;8.00;99.90;;;;;;5007943;28;20046;-91
2023/04/06 18:55:07;;;;;;;25.80;22.98;;;8.00;99.90;;;;;;5017400;28;20050;-94
2023/04/06 18:57:33;;;;;;;27.33;24.40;;;8.00;99.90;;;;;;5006929;28;20096;-92
2023/04/06 19:00:00;;;;;;;28.02;25.13;;;8.00;99.90;;;;;;4992484;28;20045;-92
2023/04/06 19:02:25;;;;;;;29.05;25.92;;;8.00;99.90;;;;;;5008978;28;20057;-93
2023/04/06 19:04:52;;;;;;;28.88;25.92;;;8.00;99.90;;;;;;5004649;28;20037;-93
2023/04/06 19:07:17;;;;;;;28.20;25.25;;;8.00;99.90;;;;;;5004323;28;20038;-92
2023/04/06 19:09:43;;;;;;;29.75;26.65;;;8.00;99.90;;;;;;4993948;28;20049;-93
2023/04/06 19:12:09;;;;;;;28.20;25.30;;;8.00;99.90;;;;;;5011658;28;20034;-92
2023/04/06 19:14:34;;;;;;;28.67;25.67;;;8.00;99.90;;;;;;5017720;28;20078;-93
2023/04/06 19:17:00;;;;;;;28.27;25.40;;;8.00;99.90;;;;;;5024787;28;20168;-92
2023/04/06 19:19:26;;;;;;;28.40;25.50;;;8.00;99.90;;;;;;5021311;28;20483;-92
2023/04/06 19:21:55;;;;;;;27.45;24.75;;;8.00;99.90;;;;;;5013533;28;20459;-93
2023/04/06 19:24:20;;;;;;;27.15;24.35;;;8.00;99.90;;;;;;4991236;28;20092;-91
2023/04/06 19:26:46;;;;;;;28.00;25.20;;;8.00;99.90;;;;;;5007597;28;20398;-92
2023/04/06 19:29:12;;;;;;;27.55;24.65;;;8.00;99.90;;;;;;4986616;28;20081;-91